Aérodrome :
LOGIN :

S'inscrire | Disclaimer

   EN    FR    IT 

 










Légende :    VFR   VFR Marginal   IFR   IFR Intensif   IFR Très Intensif
Visi : 
Plafond : 
>= 8 km
>= 3000ft
5 à 8 km
1000 à 3000 ft
1500m à 5 km
500 à 1000 ft
800 à 1500m
200 à 500 ft
< 800m
< 200 ft
Symboles :   Orages  Brouillard  Fortes neiges  Fortes précipitations  Vent > 20 kt
SIGMETs :   Divers  Orages  Givrage  Turbulence  Onde Orograph.  Cendres Volcan.







- Altitude de l'aérodrome : 74 ft
- Code IATA : LRH
- Voir les cartes d'approche


LFBH - La Rochelle Ile de Ré

DERNIER METAR :
  • 170730Z AUTO VRB02KT 9999 FEW021 OVC048 20/15 Q1020 NOSIG

METARs EXPIRÉS :
  • 170700Z AUTO 29004KT 9999 OVC048 20/15 Q1020 NOSIG
  • 170630Z AUTO 32003KT 290V350 9999 OVC047 20/15 Q1019 NOSIG
  • 170600Z AUTO 31004KT 9999 OVC045 20/16 Q1019 NOSIG
  • 170530Z AUTO 29004KT 9999 OVC046 20/16 Q1019 NOSIG
  • 170500Z AUTO 30006KT 9999 OVC044 19/15 Q1019 NOSIG

TAF TAF LFBH
Valide du 17 à 06h jusqu'au 18 à 06h UTC


170500Z 1706/1806 32005KT 9999 BKN035
BECMG 1712/1715 BKN045
BECMG 1718/1721 CAVOK
BECMG 1802/1804 SCT045
ATIS : +33 5 46 00 13 92
Pas de NOTAMs connus pour ce terrain.



MET'MAP, la Météo Aéronautique d'un coup d'oeil ! - Copyright ORBIFLY Décembre 2007 - Disclaimer

ORBIFLY MET'MAP TEAM :

Programmation & Développement : Alexandra Zaïnal
Conception & Développement : Baudouin d'Aumeries
Co-Programmation & Développement : Marc-Olivier Méhu
Soutien technique & logistique : Manuel Goepfert

Contact : metmap@orbifly.com




SOURCES & CREDITS :

   NOAA